Time;durP1;ratioP1;P1;durP2;ratioP2;P2;SDS_P1;SDS_P2;PMS_P1;PMS_P2;Temp;Humidity;BMP_temperature;BMP_pressure;BME280_temperature;BME280_humidity;BME280_pressure;Samples;Min_cycle;Max_cycle;Signal;HPM_P1;HPM_P2
2022/05/05 00:00:38;;;;;;;;;;;;;;;;;;5065052;28;19931;-55
2022/05/05 00:03:03;;;;;;;;;;;;;;;;;;5065699;28;19916;-55
2022/05/05 00:05:29;;;;;;;;;;;;;;;;;;5065707;28;19908;-54
2022/05/05 00:07:56;;;;;;;;;;;;;;;;;;5065055;28;20298;-55
2022/05/05 00:15:52;;;;;;;;;;;;;;;;;;5065293;28;19962;-54
2022/05/05 00:18:18;;;;;;;;;;;;;;;;;;5065823;28;20008;-56
2022/05/05 00:20:45;;;;;;;;;;;;;;;;;;5065313;28;19962;-54
2022/05/05 00:23:11;;;;;;;;;;;;;;;;;;5065121;28;19912;-55
2022/05/05 00:25:37;;;;;;;;;;;;;;;;;;5065445;28;20398;-55
2022/05/05 00:28:04;;;;;;;;;;;;;;;;;;5064868;28;20360;-55
2022/05/05 00:30:29;;;;;;;;;;;;;;;;;;5065405;28;20475;-55
2022/05/05 00:32:55;;;;;;;;;;;;;;;;;;5064809;28;20003;-54
2022/05/05 00:35:21;;;;;;;;;;;;;;;;;;5065189;28;20037;-56
2022/05/05 00:37:47;;;;;;;;;;;;;;;;;;5065808;28;20312;-54
2022/05/05 00:40:13;;;;;;;;;;;;;;;;;;5064672;28;20090;-54
2022/05/05 00:42:40;;;;;;;;;;;;;;;;;;5064843;28;20318;-54
2022/05/05 00:45:06;;;;;;;;;;;;;;;;;;5064770;28;19919;-55
2022/05/05 00:47:32;;;;;;;;;;;;;;;;;;5064974;28;19912;-55
2022/05/05 00:50:01;;;;;;;;;;;;;;;;;;5064907;28;19935;-55
2022/05/05 00:52:27;;;;;;;;;;;;;;;;;;5064872;28;19920;-55
2022/05/05 00:54:52;;;;;;;;;;;;;;;;;;5064936;28;19908;-54
2022/05/05 00:57:18;;;;;;;;;;;;;;;;;;5065487;28;19912;-55
2022/05/05 00:59:44;;;;;;;;;;;;;;;;;;5064840;28;20365;-55
2022/05/05 01:02:10;;;;;;;;;;;;;;;;;;5064427;28;19909;-55
2022/05/05 01:04:36;;;;;;;;;;;;;;;;;;5065032;28;19912;-55
2022/05/05 01:07:02;;;;;;;;;;;;;;;;;;5064642;28;20505;-55
2022/05/05 01:09:28;;;;;;;;;;;;;;;;;;5065026;28;19919;-55
2022/05/05 01:11:55;;;;;;;;;;;;;;;;;;5064338;28;19917;-54
2022/05/05 01:14:22;;;;;;;;;;;;;;;;;;5069016;28;19908;-55
2022/05/05 01:16:48;;;;;;;;;;;;;;;;;;5069328;28;19909;-55
2022/05/05 01:19:14;;;;;;;;;;;;;;;;;;5068500;28;19989;-54
2022/05/05 01:21:40;;;;;;;;;;;;;;;;;;5068866;28;20295;-54
2022/05/05 01:24:05;;;;;;;;;;;;;;;;;;5068328;28;19916;-54
2022/05/05 01:29:17;;;;;;;;;;;;;;;;;;5068749;28;20299;-55
2022/05/05 01:31:44;;;;;;;;;;;;;;;;;;5101160;28;19912;-55
2022/05/05 01:34:09;;;;;;;;;;;;;;;;;;5068270;28;19912;-54
2022/05/05 01:36:35;;;;;;;;;;;;;;;;;;5068588;28;20390;-54
2022/05/05 01:39:02;;;;;;;;;;;;;;;;;;5067952;28;19908;-54
2022/05/05 01:41:30;;;;;;;;;;;;;;;;;;5068655;28;19970;-53
2022/05/05 01:43:56;;;;;;;;;;;;;;;;;;5068092;28;19920;-54
2022/05/05 01:46:22;;;;;;;;;;;;;;;;;;5068384;28;20290;-55
2022/05/05 01:48:49;;;;;;;;;;;;;;;;;;5068821;28;19915;-54
2022/05/05 01:51:15;;;;;;;;;;;;;;;;;;5067754;28;19920;-55
2022/05/05 01:53:42;;;;;;;;;;;;;;;;;;5068055;28;20211;-54
2022/05/05 01:56:11;;;;;;;;;;;;;;;;;;5067482;28;19912;-55
2022/05/05 01:58:38;;;;;;;;;;;;;;;;;;5067805;28;19912;-54
2022/05/05 02:01:04;;;;;;;;;;;;;;;;;;5067623;28;19948;-55
2022/05/05 02:03:30;;;;;;;;;;;;;;;;;;5067923;28;20013;-54
2022/05/05 02:05:57;;;;;;;;;;;;;;;;;;5067644;28;19913;-55
2022/05/05 02:08:24;;;;;;;;;;;;;;;;;;5067659;28;20284;-55
2022/05/05 02:10:51;;;;;;;;;;;;;;;;;;5068389;28;19916;-54
2022/05/05 02:13:20;;;;;;;;;;;;;;;;;;5068082;28;20243;-54
2022/05/05 02:15:47;;;;;;;;;;;;;;;;;;5068325;28;20013;-54
2022/05/05 02:18:13;;;;;;;;;;;;;;;;;;5067175;28;19912;-53
2022/05/05 02:20:39;;;;;;;;;;;;;;;;;;5067843;28;20173;-55
2022/05/05 02:23:06;;;;;;;;;;;;;;;;;;5066672;28;20403;-54
2022/05/05 02:25:32;;;;;;;;;;;;;;;;;;5067386;28;19916;-55
2022/05/05 02:27:58;;;;;;;;;;;;;;;;;;5067209;28;20371;-54
2022/05/05 02:30:25;;;;;;;;;;;;;;;;;;5067680;28;19919;-54
2022/05/05 02:32:51;;;;;;;;;;;;;;;;;;5067793;28;20350;-56
2022/05/05 02:35:18;;;;;;;;;;;;;;;;;;5067724;28;19912;-54
2022/05/05 02:40:28;;;;;;;;;;;;;;;;;;5066935;28;19955;-54
2022/05/05 02:42:55;;;;;;;;;;;;;;;;;;5067393;28;19952;-53
2022/05/05 02:45:22;;;;;;;;;;;;;;;;;;5067202;28;19909;-54
2022/05/05 02:47:49;;;;;;;;;;;;;;;;;;5067760;28;20368;-54
2022/05/05 02:50:15;;;;;;;;;;;;;;;;;;5066468;28;19912;-54
2022/05/05 02:52:42;;;;;;;;;;;;;;;;;;5066838;28;19916;-55
2022/05/05 02:55:09;;;;;;;;;;;;;;;;;;5066506;28;19920;-54
2022/05/05 02:57:35;;;;;;;;;;;;;;;;;;5066775;28;20410;-54
2022/05/05 03:00:02;;;;;;;;;;;;;;;;;;5066225;28;19913;-54
2022/05/05 03:02:30;;;;;;;;;;;;;;;;;;5066605;28;19924;-52
2022/05/05 03:04:56;;;;;;;;;;;;;;;;;;5066280;28;20442;-54
2022/05/05 03:07:22;;;;;;;;;;;;;;;;;;5066642;28;20000;-55
2022/05/05 03:09:48;;;;;;;;;;;;;;;;;;5067093;28;19951;-54
2022/05/05 03:12:14;;;;;;;;;;;;;;;;;;5066507;28;20010;-55
2022/05/05 03:14:41;;;;;;;;;;;;;;;;;;5066647;28;20341;-54
2022/05/05 03:17:08;;;;;;;;;;;;;;;;;;5066249;28;19913;-53
2022/05/05 03:19:34;;;;;;;;;;;;;;;;;;5066344;28;19912;-54
2022/05/05 03:22:00;;;;;;;;;;;;;;;;;;5066216;28;19971;-55
2022/05/05 03:24:26;;;;;;;;;;;;;;;;;;5066110;28;19936;-55
2022/05/05 03:26:52;;;;;;;;;;;;;;;;;;5065988;28;19908;-55
2022/05/05 03:29:18;;;;;;;;;;;;;;;;;;5066762;28;20003;-55
2022/05/05 03:31:44;;;;;;;;;;;;;;;;;;5066394;28;19931;-55
2022/05/05 03:34:10;;;;;;;;;;;;;;;;;;5065902;28;19923;-55
2022/05/05 03:36:36;;;;;;;;;;;;;;;;;;5065295;28;19939;-55
2022/05/05 03:39:03;;;;;;;;;;;;;;;;;;5065617;28;20386;-54
2022/05/05 03:41:31;;;;;;;;;;;;;;;;;;5065969;28;20348;-54
2022/05/05 03:43:57;;;;;;;;;;;;;;;;;;5065935;28;20007;-55
2022/05/05 03:46:24;;;;;;;;;;;;;;;;;;5065998;28;20449;-54
2022/05/05 03:48:52;;;;;;;;;;;;;;;;;;5066529;28;20032;-54
2022/05/05 03:51:18;;;;;;;;;;;;;;;;;;5066201;28;19960;-55
2022/05/05 03:53:44;;;;;;;;;;;;;;;;;;5065777;28;19956;-54
2022/05/05 03:56:10;;;;;;;;;;;;;;;;;;5065136;28;20387;-55
2022/05/05 03:58:35;;;;;;;;;;;;;;;;;;5065690;28;19927;-54
2022/05/05 04:01:01;;;;;;;;;;;;;;;;;;5065149;28;20391;-55
2022/05/05 04:03:30;;;;;;;;;;;;;;;;;;5065542;28;20017;-54
2022/05/05 04:05:57;;;;;;;;;;;;;;;;;;5065207;28;20306;-54
2022/05/05 04:08:23;;;;;;;;;;;;;;;;;;5065348;28;19935;-53
2022/05/05 04:10:50;;;;;;;;;;;;;;;;;;5065720;28;20374;-53
2022/05/05 04:13:16;;;;;;;;;;;;;;;;;;5065874;28;19915;-54
2022/05/05 04:15:43;;;;;;;;;;;;;;;;;;5065240;28;19908;-54
2022/05/05 04:18:10;;;;;;;;;;;;;;;;;;5064840;28;20065;-54
2022/05/05 04:20:37;;;;;;;;;;;;;;;;;;5065408;28;19913;-54
2022/05/05 04:23:03;;;;;;;;;;;;;;;;;;5066163;28;20402;-55
2022/05/05 04:25:29;;;;;;;;;;;;;;;;;;5092927;28;19908;-53
2022/05/05 04:27:55;;;;;;;;;;;;;;;;;;5106310;28;19908;-55
2022/05/05 04:30:21;;;;;;;;;;;;;;;;;;5101802;28;19961;-55
2022/05/05 04:32:47;;;;;;;;;;;;;;;;;;5096802;28;20590;-54
2022/05/05 04:35:13;;;;;;;;;;;;;;;;;;5086299;28;20007;-56
2022/05/05 04:37:40;;;;;;;;;;;;;;;;;;5078419;28;19915;-55
2022/05/05 04:40:06;;;;;;;;;;;;;;;;;;5065989;28;19958;-55
2022/05/05 04:42:32;;;;;;;;;;;;;;;;;;5082833;28;19913;-54
2022/05/05 04:44:59;;;;;;;;;;;;;;;;;;5066041;28;19916;-53
2022/05/05 04:47:26;;;;;;;;;;;;;;;;;;5066149;28;19909;-54
2022/05/05 04:49:55;;;;;;;;;;;;;;;;;;5066804;28;20371;-52
2022/05/05 04:52:21;;;;;;;;;;;;;;;;;;5066620;28;19959;-54
2022/05/05 04:54:47;;;;;;;;;;;;;;;;;;5065799;28;19954;-51
2022/05/05 04:57:13;;;;;;;;;;;;;;;;;;5066020;28;19955;-54
2022/05/05 04:59:39;;;;;;;;;;;;;;;;;;5066239;28;20413;-54
2022/05/05 05:02:05;;;;;;;;;;;;;;;;;;5065842;28;19909;-52
2022/05/05 05:04:31;;;;;;;;;;;;;;;;;;5066389;28;19912;-52
2022/05/05 05:06:58;;;;;;;;;;;;;;;;;;5066212;28;19962;-54
2022/05/05 05:09:24;;;;;;;;;;;;;;;;;;5066193;28;19913;-51
2022/05/05 05:11:50;;;;;;;;;;;;;;;;;;5066969;28;19919;-52
2022/05/05 05:14:15;;;;;;;;;;;;;;;;;;5068483;28;19922;-54
2022/05/05 05:16:41;;;;;;;;;;;;;;;;;;5086468;28;19919;-53
2022/05/05 05:19:07;;;;;;;;;;;;;;;;;;5086305;28;19955;-52
2022/05/05 05:21:33;;;;;;;;;;;;;;;;;;5086667;28;19943;-54
2022/05/05 05:23:59;;;;;;;;;;;;;;;;;;5085910;28;19908;-54
2022/05/05 05:26:25;;;;;;;;;;;;;;;;;;5086352;28;20355;-55
2022/05/05 05:28:52;;;;;;;;;;;;;;;;;;5084511;28;19920;-54
2022/05/05 05:31:21;;;;;;;;;;;;;;;;;;5085646;28;20306;-53
2022/05/05 05:33:47;;;;;;;;;;;;;;;;;;5082576;28;19912;-54
2022/05/05 05:36:13;;;;;;;;;;;;;;;;;;5078567;28;20425;-53
2022/05/05 05:38:39;;;;;;;;;;;;;;;;;;5068357;28;19912;-53
2022/05/05 05:41:05;;;;;;;;;;;;;;;;;;5079807;28;19912;-53
2022/05/05 05:43:32;;;;;;;;;;;;;;;;;;5084823;28;20018;-51
2022/05/05 05:45:58;;;;;;;;;;;;;;;;;;5084406;28;19912;-53
2022/05/05 05:48:25;;;;;;;;;;;;;;;;;;5084749;28;19923;-54
2022/05/05 05:50:51;;;;;;;;;;;;;;;;;;5085164;28;19926;-54
2022/05/05 05:53:18;;;;;;;;;;;;;;;;;;5084015;28;19912;-54
2022/05/05 05:55:43;;;;;;;;;;;;;;;;;;5084728;28;19942;-53
2022/05/05 05:58:09;;;;;;;;;;;;;;;;;;5085051;28;19908;-52
2022/05/05 06:00:36;;;;;;;;;;;;;;;;;;5088093;28;20344;-55
2022/05/05 06:05:46;;;;;;;;;;;;;;;;;;5088097;28;19962;-51
2022/05/05 06:08:12;;;;;;;;;;;;;;;;;;5087576;28;19959;-53
2022/05/05 06:10:38;;;;;;;;;;;;;;;;;;5088040;28;19908;-53
2022/05/05 06:13:04;;;;;;;;;;;;;;;;;;5087796;28;20006;-53
2022/05/05 06:15:30;;;;;;;;;;;;;;;;;;5088342;28;19969;-53
2022/05/05 06:17:56;;;;;;;;;;;;;;;;;;5087923;28;20010;-54
2022/05/05 06:20:22;;;;;;;;;;;;;;;;;;5088218;28;19950;-54
2022/05/05 06:22:50;;;;;;;;;;;;;;;;;;5088322;28;19912;-53
2022/05/05 06:25:16;;;;;;;;;;;;;;;;;;5086315;28;19916;-53
2022/05/05 06:27:42;;;;;;;;;;;;;;;;;;5096735;28;19912;-53
2022/05/05 06:30:10;;;;;;;;;;;;;;;;;;5088555;28;20375;-53
2022/05/05 06:32:37;;;;;;;;;;;;;;;;;;5070935;28;19951;-52
2022/05/05 06:35:03;;;;;;;;;;;;;;;;;;5067432;28;19917;-53
2022/05/05 06:37:29;;;;;;;;;;;;;;;;;;5069175;28;19916;-51
2022/05/05 06:39:55;;;;;;;;;;;;;;;;;;5067940;28;19917;-51
2022/05/05 06:42:21;;;;;;;;;;;;;;;;;;5068451;28;19915;-52
2022/05/05 06:44:47;;;;;;;;;;;;;;;;;;5087082;28;19919;-52
2022/05/05 06:47:13;;;;;;;;;;;;;;;;;;5088594;28;20423;-52
2022/05/05 06:49:39;;;;;;;;;;;;;;;;;;5088723;28;19908;-53
2022/05/05 06:52:05;;;;;;;;;;;;;;;;;;5088568;28;20025;-53
2022/05/05 06:54:31;;;;;;;;;;;;;;;;;;5088659;28;19924;-51
2022/05/05 06:56:57;;;;;;;;;;;;;;;;;;5088527;28;19918;-50
2022/05/05 06:59:23;;;;;;;;;;;;;;;;;;5088629;28;20031;-52
2022/05/05 07:01:52;;;;;;;;;;;;;;;;;;5087040;28;19920;-53
2022/05/05 07:07:02;;;;;;;;;;;;;;;;;;5088792;28;20346;-52
2022/05/05 07:12:13;;;;;;;;;;;;;;;;;;5088002;28;19923;-51
2022/05/05 07:14:38;;;;;;;;;;;;;;;;;;5088478;28;19920;-51
2022/05/05 07:17:04;;;;;;;;;;;;;;;;;;5092456;28;19908;-54
2022/05/05 07:19:30;;;;;;;;;;;;;;;;;;5105933;28;19915;-52
2022/05/05 07:21:56;;;;;;;;;;;;;;;;;;5088123;28;19916;-53
2022/05/05 07:24:22;;;;;;;;;;;;;;;;;;5087851;28;19938;-52
2022/05/05 07:26:48;;;;;;;;;;;;;;;;;;5087777;28;19958;-53
2022/05/05 07:29:15;;;;;;;;;;;;;;;;;;5087831;28;19941;-53
2022/05/05 07:31:41;;;;;;;;;;;;;;;;;;5087437;28;20371;-51
2022/05/05 07:34:07;;;;;;;;;;;;;;;;;;5107119;28;19919;-52
2022/05/05 07:36:33;;;;;;;;;;;;;;;;;;5085350;28;19917;-50
2022/05/05 07:38:59;;;;;;;;;;;;;;;;;;5080565;28;19908;-53
2022/05/05 07:41:25;;;;;;;;;;;;;;;;;;5083810;28;19918;-53
2022/05/05 07:43:51;;;;;;;;;;;;;;;;;;5074812;28;19912;-53
2022/05/05 07:46:20;;;;;;;;;;;;;;;;;;5085853;28;20372;-52
2022/05/05 07:48:45;;;;;;;;;;;;;;;;;;5072205;28;20294;-53
2022/05/05 07:51:12;;;;;;;;;;;;;;;;;;5065495;28;19916;-51
2022/05/05 07:53:38;;;;;;;;;;;;;;;;;;5065847;28;20718;-52
2022/05/05 07:56:04;;;;;;;;;;;;;;;;;;5066290;28;19994;-50
2022/05/05 07:58:30;;;;;;;;;;;;;;;;;;5066392;28;20272;-52
2022/05/05 08:00:57;;;;;;;;;;;;;;;;;;5079168;28;19969;-52
2022/05/05 08:03:23;;;;;;;;;;;;;;;;;;5086144;28;19965;-53
2022/05/05 08:05:49;;;;;;;;;;;;;;;;;;5086093;28;20290;-52
2022/05/05 08:08:15;;;;;;;;;;;;;;;;;;5085680;28;19908;-54
2022/05/05 08:10:41;;;;;;;;;;;;;;;;;;5085754;28;19904;-50
2022/05/05 08:13:09;;;;;;;;;;;;;;;;;;5085457;28;20375;-52
2022/05/05 08:15:35;;;;;;;;;;;;;;;;;;5085831;28;20111;-52
2022/05/05 08:18:01;;;;;;;;;;;;;;;;;;5085766;28;20284;-51
2022/05/05 08:20:27;;;;;;;;;;;;;;;;;;5079911;28;19916;-52
2022/05/05 08:22:53;;;;;;;;;;;;;;;;;;5079163;28;19916;-53
2022/05/05 08:30:48;;;;;;;;;;;;;;;;;;5107315;28;19918;-53
2022/05/05 08:33:14;;;;;;;;;;;;;;;;;;5090281;28;19995;-54
2022/05/05 08:35:42;;;;;;;;;;;;;;;;;;5066913;28;19997;-53
2022/05/05 08:38:08;;;;;;;;;;;;;;;;;;5065679;28;19919;-53
2022/05/05 08:40:35;;;;;;;;;;;;;;;;;;5066490;28;19908;-52
2022/05/05 08:43:01;;;;;;;;;;;;;;;;;;5066114;28;20287;-57
2022/05/05 08:45:28;;;;;;;;;;;;;;;;;;5104917;28;19919;-57
2022/05/05 08:47:55;;;;;;;;;;;;;;;;;;5097451;28;19912;-55
2022/05/05 08:50:21;;;;;;;;;;;;;;;;;;5086653;28;19909;-57
2022/05/05 08:52:48;;;;;;;;;;;;;;;;;;5087056;28;19912;-57
2022/05/05 08:55:14;;;;;;;;;;;;;;;;;;5097335;28;20314;-57
2022/05/05 08:57:40;;;;;;;;;;;;;;;;;;5086809;28;20420;-57
2022/05/05 09:00:06;;;;;;;;;;;;;;;;;;5086103;28;19955;-57
2022/05/05 09:02:32;;;;;;;;;;;;;;;;;;5086764;28;19959;-57
2022/05/05 09:04:58;;;;;;;;;;;;;;;;;;5086355;28;19995;-57
2022/05/05 09:07:24;;;;;;;;;;;;;;;;;;5082247;28;19919;-57
2022/05/05 09:09:50;;;;;;;;;;;;;;;;;;5069210;28;19912;-57
2022/05/05 09:12:16;;;;;;;;;;;;;;;;;;5102179;28;19912;-57
2022/05/05 09:14:43;;;;;;;;;;;;;;;;;;5102058;28;19923;-57
2022/05/05 09:17:10;;;;;;;;;;;;;;;;;;5085991;28;19912;-57
2022/05/05 09:19:36;;;;;;;;;;;;;;;;;;5086441;28;19908;-57
2022/05/05 09:22:02;;;;;;;;;;;;;;;;;;5086256;28;19916;-58
2022/05/05 09:24:34;;;;;;;;;;;;;;;;;;5086199;28;19916;-57
2022/05/05 09:27:00;;;;;;;;;;;;;;;;;;5086165;28;19909;-57
2022/05/05 09:29:26;;;;;;;;;;;;;;;;;;5086355;28;19918;-57
2022/05/05 09:31:52;;;;;;;;;;;;;;;;;;5085136;28;19951;-58
2022/05/05 09:34:18;;;;;;;;;;;;;;;;;;5089281;28;19923;-57
2022/05/05 09:36:44;;;;;;;;;;;;;;;;;;5091042;28;19908;-57
2022/05/05 09:39:12;;;;;;;;;;;;;;;;;;5089709;28;19992;-58
2022/05/05 09:41:37;;;;;;;;;;;;;;;;;;5090585;28;19914;-57
2022/05/05 09:44:03;;;;;;;;;;;;;;;;;;5090035;28;19999;-57
2022/05/05 09:46:30;;;;;;;;;;;;;;;;;;5090155;28;19974;-57
2022/05/05 09:48:56;;;;;;;;;;;;;;;;;;5096390;28;20300;-57
2022/05/05 09:51:22;;;;;;;;;;;;;;;;;;5095005;28;19920;-58
2022/05/05 09:59:17;;;;;;;;;;;;;;;;;;5110181;28;19991;-57
2022/05/05 10:01:45;;;;;;;;;;;;;;;;;;5110085;28;19988;-58
2022/05/05 10:04:11;;;;;;;;;;;;;;;;;;5098877;28;19954;-58
2022/05/05 10:06:37;;;;;;;;;;;;;;;;;;5089677;28;19912;-57
2022/05/05 10:09:03;;;;;;;;;;;;;;;;;;5089295;28;19965;-58
2022/05/05 10:11:29;;;;;;;;;;;;;;;;;;5089955;28;19922;-58
2022/05/05 10:13:56;;;;;;;;;;;;;;;;;;5089920;28;19916;-57
2022/05/05 10:16:22;;;;;;;;;;;;;;;;;;5089929;28;19937;-57
2022/05/05 10:18:50;;;;;;;;;;;;;;;;;;5089850;28;20534;-57
2022/05/05 10:21:16;;;;;;;;;;;;;;;;;;5090057;28;19909;-57
2022/05/05 10:23:42;;;;;;;;;;;;;;;;;;5089820;28;19943;-57
2022/05/05 10:26:08;;;;;;;;;;;;;;;;;;5090307;28;20392;-57
2022/05/05 10:28:34;;;;;;;;;;;;;;;;;;5100422;28;19959;-57
2022/05/05 10:31:00;;;;;;;;;;;;;;;;;;5089096;28;19946;-57
2022/05/05 10:33:26;;;;;;;;;;;;;;;;;;5102409;28;20015;-58
2022/05/05 10:35:53;;;;;;;;;;;;;;;;;;5109601;28;19907;-57
2022/05/05 10:38:19;;;;;;;;;;;;;;;;;;5110124;28;20723;-58
2022/05/05 10:40:45;;;;;;;;;;;;;;;;;;5106819;28;19915;-57
2022/05/05 10:43:11;;;;;;;;;;;;;;;;;;5088659;28;19987;-57
2022/05/05 10:45:37;;;;;;;;;;;;;;;;;;5088745;28;20011;-57
2022/05/05 10:48:06;;;;;;;;;;;;;;;;;;5088833;28;19961;-58
2022/05/05 10:50:33;;;;;;;;;;;;;;;;;;5088510;28;19912;-57
2022/05/05 10:52:59;;;;;;;;;;;;;;;;;;5088495;28;19947;-58
2022/05/05 10:55:28;;;;;;;;;;;;;;;;;;5088872;28;19960;-57
2022/05/05 10:57:54;;;;;;;;;;;;;;;;;;5089040;28;19958;-58
2022/05/05 11:00:20;;;;;;;;;;;;;;;;;;5088883;28;19957;-57
2022/05/05 11:02:46;;;;;;;;;;;;;;;;;;5086122;28;19986;-57
2022/05/05 11:05:12;;;;;;;;;;;;;;;;;;5082875;28;19908;-57
2022/05/05 11:07:38;;;;;;;;;;;;;;;;;;5088625;28;19908;-57
2022/05/05 11:10:04;;;;;;;;;;;;;;;;;;5088109;28;19923;-58
2022/05/05 11:12:30;;;;;;;;;;;;;;;;;;5087062;28;19916;-57
2022/05/05 11:23:10;;;;;;;;;;;;;;;;;;5067679;28;19915;-57
2022/05/05 11:25:36;;;;;;;;;;;;;;;;;;5067701;28;19950;-58
2022/05/05 11:28:02;;;;;;;;;;;;;;;;;;5072409;28;19952;-57
2022/05/05 11:30:28;;;;;;;;;;;;;;;;;;5086566;28;19936;-57
2022/05/05 11:32:55;;;;;;;;;;;;;;;;;;5078832;28;19934;-58
2022/05/05 11:35:21;;;;;;;;;;;;;;;;;;5066238;28;19916;-58
2022/05/05 11:37:48;;;;;;;;;;;;;;;;;;5067012;28;20047;-58
2022/05/05 11:40:14;;;;;;;;;;;;;;;;;;5066148;28;19956;-58
2022/05/05 11:44:14;;;;;;;;;;;;;;;;;;5066372;28;19963;-57
2022/05/05 11:45:27;;;;;;;;;;;;;;;;;;5077025;28;19916;-58
2022/05/05 11:47:53;;;;;;;;;;;;;;;;;;5097266;28;20052;-58
2022/05/05 11:50:19;;;;;;;;;;;;;;;;;;5106393;28;20006;-57
2022/05/05 11:52:45;;;;;;;;;;;;;;;;;;5107093;28;20048;-57
2022/05/05 11:55:11;;;;;;;;;;;;;;;;;;5106172;28;19908;-57
2022/05/05 11:57:40;;;;;;;;;;;;;;;;;;5097539;28;19937;-57
2022/05/05 12:02:50;;;;;;;;;;;;;;;;;;5087477;28;20329;-58
2022/05/05 12:05:16;;;;;;;;;;;;;;;;;;5069305;28;19909;-58
2022/05/05 12:07:46;;;;;;;;;;;;;;;;;;5067344;28;19909;-58
2022/05/05 12:10:12;;;;;;;;;;;;;;;;;;5066615;28;20578;-58
2022/05/05 12:12:38;;;;;;;;;;;;;;;;;;5065978;28;19912;-57
2022/05/05 12:15:05;;;;;;;;;;;;;;;;;;5065195;28;19920;-58
2022/05/05 12:17:31;;;;;;;;;;;;;;;;;;5085017;28;19963;-58
2022/05/05 12:19:57;;;;;;;;;;;;;;;;;;5085446;28;20004;-57
2022/05/05 12:22:23;;;;;;;;;;;;;;;;;;5085866;28;19915;-57
2022/05/05 12:24:49;;;;;;;;;;;;;;;;;;5086592;28;19908;-57
2022/05/05 12:27:15;;;;;;;;;;;;;;;;;;5087612;28;20358;-58
2022/05/05 12:29:41;;;;;;;;;;;;;;;;;;5086749;28;19908;-58
2022/05/05 12:32:07;;;;;;;;;;;;;;;;;;5081857;28;19990;-57
2022/05/05 12:34:33;;;;;;;;;;;;;;;;;;5067111;28;19913;-58
2022/05/05 12:37:06;;;;;;;2.20;1.40;;;;;;;;;;5065430;28;20407;-57
2022/05/05 12:39:32;;;;;;;1.30;1.20;;;;;;;;;;5066391;28;20032;-57
2022/05/05 12:42:00;;;;;;;1.40;1.30;;;;;;;;;;5065887;28;20035;-57
2022/05/05 12:44:35;;;;;;;1.55;1.33;;;;;;;;;;5066347;28;20024;-57
2022/05/05 12:47:02;;;;;;;1.65;1.20;;;;;;;;;;5069631;28;20530;-57
2022/05/05 12:49:35;;;;;;;1.17;1.08;;;;;;;;;;5106776;28;20035;-57
2022/05/05 12:52:02;;;;;;;1.00;0.90;;;;;;;;;;5106048;28;20059;-57
2022/05/05 12:59:59;;;;;;;1.25;0.93;;;;;;;;;;5106552;28;20034;-57
2022/05/05 13:02:25;;;;;;;1.10;1.00;;;;;;;;;;5106209;28;20030;-57
2022/05/05 13:04:51;;;;;;;1.48;1.10;;;;;;;;;;5106597;28;20023;-57
2022/05/05 13:07:19;;;;;;;1.33;1.23;;;;;;;;;;5107252;28;20570;-57
2022/05/05 13:09:45;;;;;;;1.10;1.00;;;;;;;;;;5111453;28;20496;-57
2022/05/05 13:12:11;;;;;;;1.20;1.10;;;;;;;;;;5110504;28;20027;-56
2022/05/05 13:14:37;;;;;;;1.98;1.20;;;;;;;;;;5110796;28;20031;-56
2022/05/05 13:17:04;;;;;;;1.40;1.30;;;;;;;;;;5110382;28;20031;-57
2022/05/05 13:19:30;;;;;;;1.73;1.08;;;;;;;;;;5110267;28;20605;-56
2022/05/05 13:21:56;;;;;;;1.40;1.30;;;;;;;;;;5110110;28;20036;-57
2022/05/05 13:24:22;;;;;;;1.00;0.95;;;;;;;;;;5104985;28;20028;-57
2022/05/05 13:26:48;;;;;;;1.48;1.10;;;;;;;;;;5090483;28;20036;-57
2022/05/05 13:29:15;;;;;;;1.08;0.82;;;;;;;;;;5090307;28;20028;-57
2022/05/05 13:31:41;;;;;;;1.17;1.05;;;;;;;;;;5089985;28;20025;-57
2022/05/05 13:34:08;;;;;;;1.77;1.10;;;;;;;;;;5089252;28;20052;-57
2022/05/05 13:36:35;;;;;;;2.05;1.50;;;;;;;;;;5089318;28;20398;-57
2022/05/05 13:39:02;;;;;;;1.85;1.08;;;;;;;;;;5089391;28;20016;-57
2022/05/05 13:41:28;;;;;;;1.55;1.10;;;;;;;;;;5081195;28;20032;-57
2022/05/05 13:43:54;;;;;;;1.20;1.10;;;;;;;;;;5070421;28;20518;-57
2022/05/05 13:46:20;;;;;;;1.27;1.10;;;;;;;;;;5069163;28;20107;-57
2022/05/05 13:48:46;;;;;;;1.77;1.08;;;;;;;;;;5069396;28;20463;-57
2022/05/05 13:51:13;;;;;;;1.70;1.00;;;;;;;;;;5068927;28;20082;-57
2022/05/05 13:53:39;;;;;;;1.42;1.20;;;;;;;;;;5069420;28;20035;-57
2022/05/05 13:56:05;;;;;;;0.90;0.90;;;;;;;;;;5068861;28;20024;-57
2022/05/05 13:58:31;;;;;;;2.30;1.13;;;;;;;;;;5069297;28;20458;-57
2022/05/05 14:00:57;;;;;;;1.10;1.00;;;;;;;;;;5068937;28;20089;-57
2022/05/05 14:03:23;;;;;;;2.17;1.00;;;;;;;;;;5083908;28;20035;-57
2022/05/05 14:05:49;;;;;;;0.90;0.90;;;;;;;;;;5089121;28;20024;-57
2022/05/05 14:13:45;;;;;;;1.38;0.90;;;;;;;;;;5069621;28;20040;-57
2022/05/05 14:16:11;;;;;;;1.25;1.08;;;;;;;;;;5068371;28;20628;-58
2022/05/05 14:18:38;;;;;;;1.23;1.13;;;;;;;;;;5067949;28;20064;-57
2022/05/05 14:21:05;;;;;;;1.15;0.80;;;;;;;;;;5069470;28;20391;-57
2022/05/05 14:23:31;;;;;;;0.85;0.80;;;;;;;;;;5084970;28;20032;-57
2022/05/05 14:25:57;;;;;;;1.10;1.00;;;;;;;;;;5088832;28;20020;-57
2022/05/05 14:28:23;;;;;;;1.15;0.85;;;;;;;;;;5088310;28;20024;-58
2022/05/05 14:30:50;;;;;;;0.70;0.70;;;;;;;;;;5075285;28;20020;-57
2022/05/05 14:33:17;;;;;;;0.80;0.80;;;;;;;;;;5066965;28;20036;-57
2022/05/05 14:35:43;;;;;;;0.80;0.80;;;;;;;;;;5066698;28;20558;-58
2022/05/05 14:38:09;;;;;;;;;;;;;;;;;;5067333;28;20085;-58
2022/05/05 14:40:35;;;;;;;;;;;;;;;;;;5067355;28;19999;-58
2022/05/05 14:43:01;;;;;;;;;;;;;;;;;;5067844;28;19908;-58
2022/05/05 14:45:27;;;;;;;;;;;;;;;;;;5068010;28;20398;-58
2022/05/05 14:47:54;;;;;;;;;;;;;;;;;;5067284;28;19905;-58
2022/05/05 14:50:19;;;;;;;;;;;;;;;;;;5067092;28;20017;-58
2022/05/05 14:52:45;;;;;;;;;;;;;;;;;;5067204;28;20407;-58
2022/05/05 14:55:11;;;;;;;;;;;;;;;;;;5066899;28;20311;-58
2022/05/05 14:57:37;;;;;;;;;;;;;;;;;;5067192;28;19904;-58
2022/05/05 15:00:03;;;;;;;;;;;;;;;;;;5066651;28;19908;-58
2022/05/05 15:02:29;;;;;;;;;;;;;;;;;;5067251;28;19991;-58
2022/05/05 15:04:56;;;;;;;;;;;;;;;;;;5066854;28;19951;-58
2022/05/05 15:07:23;;;;;;;;;;;;;;;;;;5066956;28;19905;-58
2022/05/05 15:09:49;;;;;;;;;;;;;;;;;;5066754;28;19905;-58
2022/05/05 15:12:15;;;;;;;;;;;;;;;;;;5066447;28;20015;-58
2022/05/05 15:14:41;;;;;;;;;;;;;;;;;;5066925;28;19908;-58
2022/05/05 15:17:07;;;;;;;;;;;;;;;;;;5066286;28;19911;-58
2022/05/05 15:19:34;;;;;;;;;;;;;;;;;;5066292;28;19935;-58
2022/05/05 15:22:00;;;;;;;;;;;;;;;;;;5069629;28;19912;-58
2022/05/05 15:24:26;;;;;;;;;;;;;;;;;;5069552;28;20237;-59
2022/05/05 15:26:53;;;;;;;;;;;;;;;;;;5070195;28;19916;-58
2022/05/05 15:29:20;;;;;;;;;;;;;;;;;;5086757;28;19908;-58
2022/05/05 15:31:46;;;;;;;;;;;;;;;;;;5085466;28;20314;-59
2022/05/05 15:34:12;;;;;;;;;;;;;;;;;;5072413;28;19919;-58
2022/05/05 15:36:38;;;;;;;;;;;;;;;;;;5082738;28;19987;-58
2022/05/05 15:39:04;;;;;;;;;;;;;;;;;;5086139;28;19937;-58
2022/05/05 15:41:30;;;;;;;;;;;;;;;;;;5087120;28;19944;-58
2022/05/05 15:43:55;;;;;;;;;;;;;;;;;;5086163;28;19907;-57
2022/05/05 15:46:21;;;;;;;;;;;;;;;;;;5086433;28;20387;-58
2022/05/05 15:48:48;;;;;;;;;;;;;;;;;;5083151;28;19978;-57
2022/05/05 15:51:13;;;;;;;;;;;;;;;;;;5079667;28;19927;-58
2022/05/05 15:53:39;;;;;;;;;;;;;;;;;;5086179;28;19904;-57
2022/05/05 15:56:05;;;;;;;;;;;;;;;;;;5084161;28;19915;-57
2022/05/05 15:58:32;;;;;;;;;;;;;;;;;;5086503;28;19947;-57
2022/05/05 16:00:59;;;;;;;;;;;;;;;;;;5086204;28;19904;-57
2022/05/05 16:03:25;;;;;;;;;;;;;;;;;;5086027;28;19904;-57
2022/05/05 16:05:55;;;;;;;;;;;;;;;;;;5086033;28;19904;-58
2022/05/05 16:08:21;;;;;;;;;;;;;;;;;;5081786;28;19915;-57
2022/05/05 16:10:47;;;;;;;;;;;;;;;;;;5083831;28;19912;-57
2022/05/05 16:13:13;;;;;;;;;;;;;;;;;;5069865;28;19912;-58
2022/05/05 16:15:39;;;;;;;;;;;;;;;;;;5067075;28;19908;-59
2022/05/05 16:18:05;;;;;;;;;;;;;;;;;;5066603;28;19912;-58
2022/05/05 16:20:31;;;;;;;;;;;;;;;;;;5068441;28;20576;-58
2022/05/05 16:22:57;;;;;;;;;;;;;;;;;;5071754;28;19911;-58
2022/05/05 16:30:52;;;;;;;;;;;;;;;;;;5065241;28;20174;-59
2022/05/05 16:33:18;;;;;;;;;;;;;;;;;;5073599;28;19912;-59
2022/05/05 16:35:44;;;;;;;;;;;;;;;;;;5065983;28;19904;-59
2022/05/05 16:38:11;;;;;;;;;;;;;;;;;;5063663;28;19909;-59
2022/05/05 16:40:37;;;;;;;;;;;;;;;;;;5067184;28;19998;-59
2022/05/05 16:43:03;;;;;;;;;;;;;;;;;;5084831;28;19908;-59
2022/05/05 16:45:29;;;;;;;;;;;;;;;;;;5070639;28;19919;-59
2022/05/05 16:47:55;;;;;;;;;;;;;;;;;;5106024;28;19904;-59
2022/05/05 16:50:21;;;;;;;;;;;;;;;;;;5077266;28;19998;-59
2022/05/05 16:52:50;;;;;;;;;;;;;;;;;;5064443;28;20220;-60
2022/05/05 16:55:18;;;;;;;;;;;;;;;;;;5064942;28;19995;-59
2022/05/05 16:57:45;;;;;;;;;;;;;;;;;;5075723;28;19917;-59
2022/05/05 17:00:11;;;;;;;;;;;;;;;;;;5078249;28;20425;-59
2022/05/05 17:02:39;;;;;;;;;;;;;;;;;;5077873;28;19917;-59
2022/05/05 17:05:05;;;;;;;;;;;;;;;;;;5064811;28;19912;-59
2022/05/05 17:07:31;;;;;;;;;;;;;;;;;;5065063;28;20390;-59
2022/05/05 17:09:57;;;;;;;;;;;;;;;;;;5065208;28;19913;-58
2022/05/05 17:12:23;;;;;;;;;;;;;;;;;;5064982;28;20375;-59
2022/05/05 17:14:49;;;;;;;;;;;;;;;;;;5065151;28;19940;-59
2022/05/05 17:17:15;;;;;;;;;;;;;;;;;;5064947;28;19909;-59
2022/05/05 17:19:41;;;;;;;;;;;;;;;;;;5065473;28;19918;-59